createdAt,value
2019-03-19T00:04:29.350Z,5.25
2019-03-19T00:09:34.815Z,5.19
2019-03-19T00:14:40.299Z,5.13
2019-03-19T00:19:45.786Z,5.07
2019-03-19T00:24:51.320Z,5.03
2019-03-19T00:29:56.798Z,5.01
2019-03-19T00:35:02.334Z,5.03
2019-03-19T00:40:07.996Z,5.04
2019-03-19T00:45:13.523Z,5.04
2019-03-19T00:50:19.022Z,5.05
2019-03-19T00:55:24.536Z,5.02
2019-03-19T01:00:30.026Z,4.97
2019-03-19T01:05:35.554Z,4.92
2019-03-19T01:10:41.183Z,4.89
2019-03-19T01:15:46.710Z,4.87
2019-03-19T01:20:52.243Z,4.85
2019-03-19T01:25:57.755Z,4.80
2019-03-19T01:31:03.266Z,4.73
2019-03-19T01:36:08.803Z,4.67
2019-03-19T01:41:14.342Z,4.59
2019-03-19T01:46:19.885Z,4.55
2019-03-19T01:51:25.430Z,4.49
2019-03-19T01:56:31.079Z,4.44
2019-03-19T02:01:36.601Z,4.42
2019-03-19T02:06:42.134Z,4.41
2019-03-19T02:11:47.777Z,4.40
2019-03-19T02:16:53.294Z,4.35
2019-03-19T02:21:58.781Z,4.31
2019-03-19T02:27:04.338Z,4.24
2019-03-19T02:32:09.840Z,4.17
2019-03-19T02:37:15.404Z,4.11
2019-03-19T02:42:20.881Z,4.05
2019-03-19T02:47:26.392Z,4.00
2019-03-19T02:52:31.930Z,3.99
2019-03-19T02:57:37.486Z,3.97
2019-03-19T03:02:43.000Z,3.98
2019-03-19T03:07:48.525Z,3.97
2019-03-19T03:12:54.059Z,3.93
2019-03-19T03:17:59.571Z,3.89
2019-03-19T03:23:05.136Z,3.84
2019-03-19T03:28:10.617Z,3.80
2019-03-19T03:33:16.088Z,3.78
2019-03-19T03:38:21.571Z,3.75
2019-03-19T03:43:27.131Z,3.73
2019-03-19T03:48:32.621Z,3.73
2019-03-19T03:53:38.110Z,3.74
2019-03-19T03:58:43.592Z,3.73
2019-03-19T04:03:49.208Z,3.71
2019-03-19T04:08:54.809Z,3.69
2019-03-19T04:14:00.368Z,3.65
2019-03-19T04:19:05.871Z,3.61
2019-03-19T04:24:11.356Z,3.57
2019-03-19T04:29:17.046Z,3.57
2019-03-19T04:34:22.537Z,3.56
2019-03-19T04:39:28.026Z,3.57
2019-03-19T04:44:33.529Z,3.56
2019-03-19T04:49:39.089Z,3.55
2019-03-19T04:54:44.619Z,3.54
2019-03-19T04:59:50.117Z,3.49
2019-03-19T05:04:55.590Z,3.45
2019-03-19T05:10:01.166Z,3.41
2019-03-19T05:15:07.188Z,3.38
2019-03-19T05:20:12.876Z,3.37
2019-03-19T05:25:18.480Z,3.34
2019-03-19T05:30:23.959Z,3.33
2019-03-19T05:35:29.447Z,3.31
2019-03-19T05:40:34.946Z,3.31
2019-03-19T05:45:40.465Z,3.34
2019-03-19T05:50:45.976Z,3.37
2019-03-19T05:55:51.618Z,3.43
2019-03-19T06:00:57.104Z,3.52
2019-03-19T06:06:02.604Z,3.62
2019-03-19T06:11:08.134Z,3.75
2019-03-19T06:16:13.860Z,3.90
2019-03-19T06:21:19.366Z,4.09
2019-03-19T06:26:25.005Z,4.30
2019-03-19T06:31:30.581Z,4.54
2019-03-19T06:36:36.162Z,4.78
2019-03-19T06:41:41.834Z,5.04
2019-03-19T06:46:47.327Z,5.34
2019-03-19T06:51:52.882Z,5.65
2019-03-19T06:56:58.638Z,5.96
2019-03-19T07:02:04.123Z,6.41
2019-03-19T07:07:09.828Z,9.00
2019-03-19T07:12:15.358Z,12.80
2019-03-19T07:17:20.856Z,16.22
2019-03-19T07:22:26.369Z,18.90
2019-03-19T07:27:32.003Z,21.29
2019-03-19T07:32:37.534Z,23.55
2019-03-19T07:37:43.291Z,25.54
2019-03-19T07:42:48.797Z,27.03
2019-03-19T07:47:54.313Z,28.27
2019-03-19T07:52:59.950Z,29.00
2019-03-19T07:58:05.565Z,29.78
2019-03-19T08:03:15.973Z,31.08
2019-03-19T08:08:18.201Z,32.20
2019-03-19T08:13:24.005Z,33.26
2019-03-19T08:18:29.817Z,34.43
2019-03-19T08:23:35.639Z,35.44
2019-03-19T08:28:41.518Z,36.25
2019-03-19T08:33:47.323Z,37.21
2019-03-19T08:38:53.225Z,38.17
2019-03-19T08:43:58.998Z,38.91
2019-03-19T08:49:04.880Z,38.87
2019-03-19T08:54:10.843Z,39.43
2019-03-19T08:59:16.730Z,40.35
2019-03-19T09:04:22.495Z,41.27
2019-03-19T09:09:28.357Z,42.10
2019-03-19T09:14:34.187Z,42.99
2019-03-19T09:19:39.992Z,43.46
2019-03-19T09:24:45.987Z,43.82
2019-03-19T09:29:51.820Z,44.18
2019-03-19T09:34:57.621Z,44.48
2019-03-19T09:40:03.405Z,44.77
2019-03-19T09:45:09.629Z,45.08
2019-03-19T09:50:16.149Z,43.67
2019-03-19T09:55:22.043Z,40.74
2019-03-19T10:00:27.855Z,36.75
2019-03-19T10:05:33.657Z,32.44
2019-03-19T10:10:39.666Z,29.23
2019-03-19T10:15:45.222Z,26.39
2019-03-19T10:20:50.743Z,23.44
2019-03-19T10:25:56.337Z,21.29
2019-03-19T10:31:03.635Z,20.41
2019-03-19T10:36:09.200Z,19.73
2019-03-19T10:41:14.886Z,18.88
2019-03-19T10:46:20.435Z,18.18
2019-03-19T10:51:25.991Z,17.51
2019-03-19T10:56:31.555Z,16.84
2019-03-19T11:01:37.114Z,16.23
2019-03-19T11:06:42.630Z,15.70
2019-03-19T11:11:48.141Z,15.34
2019-03-19T11:16:53.694Z,15.09
2019-03-19T11:21:59.305Z,14.80
2019-03-19T11:27:04.795Z,14.46
2019-03-19T11:32:10.352Z,14.32
2019-03-19T11:37:15.876Z,14.24
2019-03-19T11:42:21.578Z,14.15
2019-03-19T11:47:27.087Z,13.99
2019-03-19T11:52:32.677Z,13.79
2019-03-19T11:57:38.261Z,13.77
2019-03-19T12:02:43.734Z,13.77
2019-03-19T12:07:49.372Z,13.65
2019-03-19T12:12:54.877Z,13.58
2019-03-19T12:18:00.413Z,13.46
2019-03-19T12:23:06.137Z,13.44
2019-03-19T12:28:11.746Z,13.51
2019-03-19T12:33:17.299Z,13.56
2019-03-19T12:38:22.803Z,13.62
2019-03-19T12:43:28.317Z,13.64
2019-03-19T12:48:33.800Z,13.61
2019-03-19T12:53:39.485Z,13.50
2019-03-19T12:58:45.000Z,13.46
2019-03-19T13:03:50.472Z,13.59
2019-03-19T13:08:55.996Z,13.80
2019-03-19T13:14:01.651Z,14.05
2019-03-19T13:19:07.159Z,14.28
2019-03-19T13:24:12.699Z,14.49
2019-03-19T13:29:18.221Z,14.56
2019-03-19T13:34:23.861Z,14.60
2019-03-19T13:39:29.444Z,14.61
2019-03-19T13:44:35.038Z,14.61
2019-03-19T13:49:40.657Z,14.47
2019-03-19T13:54:46.287Z,14.48
2019-03-19T13:59:51.824Z,14.65
2019-03-19T14:04:57.333Z,14.78
2019-03-19T14:10:02.879Z,14.83
2019-03-19T14:15:10.733Z,14.81
2019-03-19T14:20:16.875Z,14.86
2019-03-19T14:25:22.406Z,14.89
2019-03-19T14:30:28.075Z,14.85
2019-03-19T14:35:37.535Z,14.76
2019-03-19T14:40:40.788Z,14.58
2019-03-19T14:45:46.381Z,14.36
2019-03-19T14:50:51.937Z,14.22
2019-03-19T14:55:57.500Z,14.15
2019-03-19T15:01:02.996Z,14.12
2019-03-19T15:06:08.602Z,14.01
2019-03-19T15:11:14.137Z,13.89
2019-03-19T15:16:19.627Z,13.81
2019-03-19T15:21:25.254Z,13.84
2019-03-19T15:26:30.887Z,13.99
2019-03-19T15:31:36.615Z,14.12
2019-03-19T15:36:42.138Z,14.21
2019-03-19T15:41:47.680Z,14.32
2019-03-19T15:46:53.214Z,14.32
2019-03-19T15:51:58.851Z,14.21
2019-03-19T15:57:04.386Z,14.01
2019-03-19T16:02:10.052Z,13.77
2019-03-19T16:07:15.547Z,13.59
2019-03-19T16:12:21.247Z,13.45
2019-03-19T16:17:26.958Z,13.25
2019-03-19T16:22:32.611Z,13.12
2019-03-19T16:27:38.127Z,12.99
2019-03-19T16:32:44.013Z,12.84
2019-03-19T16:37:49.568Z,12.69
2019-03-19T16:42:55.272Z,12.55
2019-03-19T16:48:01.133Z,12.38
2019-03-19T16:53:06.731Z,12.23
2019-03-19T16:58:12.291Z,12.05
2019-03-19T17:03:17.776Z,11.89
2019-03-19T17:08:23.351Z,11.74
2019-03-19T17:13:28.966Z,11.57
2019-03-19T17:18:34.464Z,11.43
2019-03-19T17:23:40.057Z,11.28
2019-03-19T17:28:45.704Z,11.17
2019-03-19T17:33:51.262Z,11.04
2019-03-19T17:38:56.889Z,10.89
2019-03-19T17:44:02.518Z,10.72
2019-03-19T17:49:08.263Z,10.57
2019-03-19T17:54:13.762Z,10.41
2019-03-19T17:59:19.496Z,10.25
2019-03-19T18:04:25.309Z,10.12
2019-03-19T18:09:30.866Z,10.00
2019-03-19T18:14:36.345Z,9.88
2019-03-19T18:19:42.237Z,9.79
2019-03-19T18:24:48.326Z,9.67
2019-03-19T18:29:55.551Z,9.57
2019-03-19T18:35:04.643Z,9.47
2019-03-19T18:40:10.305Z,9.39
2019-03-19T18:45:15.866Z,9.32
2019-03-19T18:50:21.381Z,9.23
2019-03-19T18:55:27.019Z,9.15
2019-03-19T19:00:32.556Z,9.06
2019-03-19T19:05:38.109Z,8.97
2019-03-19T19:10:43.785Z,8.90
2019-03-19T19:15:49.347Z,8.84
2019-03-19T19:20:54.847Z,8.77
2019-03-19T19:26:00.499Z,8.71
2019-03-19T19:31:06.074Z,8.65
2019-03-19T19:36:16.737Z,8.61
2019-03-19T19:41:22.646Z,8.55
2019-03-19T19:46:28.335Z,8.48
2019-03-19T19:51:33.968Z,8.42
2019-03-19T19:56:40.407Z,8.35
2019-03-19T20:01:46.158Z,8.28
2019-03-19T20:06:51.976Z,8.22
2019-03-19T20:11:57.537Z,8.16
2019-03-19T20:17:03.065Z,8.11
2019-03-19T20:22:08.690Z,8.05
2019-03-19T20:27:14.710Z,7.97
2019-03-19T20:32:20.431Z,7.94
2019-03-19T20:37:26.047Z,7.88
2019-03-19T20:42:31.591Z,7.84
2019-03-19T20:47:37.160Z,7.81
2019-03-19T20:52:42.633Z,7.80
2019-03-19T20:57:48.253Z,7.78
2019-03-19T21:02:53.782Z,7.79
2019-03-19T21:07:59.382Z,7.78
2019-03-19T21:13:05.042Z,7.77
2019-03-19T21:18:10.523Z,7.75
2019-03-19T21:23:16.052Z,7.73
2019-03-19T21:28:21.522Z,7.71
2019-03-19T21:33:27.086Z,7.70
2019-03-19T21:38:32.604Z,7.67
2019-03-19T21:43:38.127Z,7.61
2019-03-19T21:48:43.638Z,7.56
2019-03-19T21:53:49.189Z,7.53
2019-03-19T21:58:54.738Z,7.50
2019-03-19T22:04:03.288Z,7.48
2019-03-19T22:09:08.336Z,7.47
2019-03-19T22:14:13.976Z,7.46
2019-03-19T22:19:19.456Z,7.41
2019-03-19T22:24:24.982Z,7.36
2019-03-19T22:29:30.469Z,7.32
2019-03-19T22:34:35.965Z,7.26
2019-03-19T22:39:42.735Z,7.22
2019-03-19T22:44:48.308Z,7.19
2019-03-19T22:49:53.793Z,7.18
2019-03-19T22:54:59.340Z,7.14
2019-03-19T23:00:06.514Z,7.10
2019-03-19T23:05:12.015Z,7.09
2019-03-19T23:10:17.565Z,7.11
2019-03-19T23:15:23.076Z,7.14
2019-03-19T23:20:28.717Z,7.14
2019-03-19T23:25:34.204Z,7.12
2019-03-19T23:30:39.797Z,7.11
2019-03-19T23:35:45.305Z,7.08
2019-03-19T23:40:50.796Z,7.05
2019-03-19T23:45:56.324Z,7.01
2019-03-19T23:51:01.909Z,6.95
2019-03-19T23:56:07.529Z,6.91
